Time;durP1;ratioP1;P1;durP2;ratioP2;P2;SDS_P1;SDS_P2;PMS_P1;PMS_P2;Temp;Humidity;BMP_temperature;BMP_pressure;BME280_temperature;BME280_humidity;BME280_pressure;Samples;Min_cycle;Max_cycle;Signal;HPM_P1;HPM_P2
2023/04/22 00:01:36;;;;;;;3.37;3.07;;;23.50;56.40;;;;;;5025763;28;20481;-75
2023/04/22 00:04:07;;;;;;;3.50;3.30;;;23.50;56.40;;;;;;5027446;28;20530;-75
2023/04/22 00:06:36;;;;;;;3.50;3.30;;;23.40;56.40;;;;;;5026755;28;20460;-75
2023/04/22 00:09:04;;;;;;;4.17;3.87;;;23.40;56.40;;;;;;5028523;28;20475;-75
2023/04/22 00:11:33;;;;;;;4.20;3.80;;;23.40;56.40;;;;;;5028231;28;20456;-75
2023/04/22 00:14:01;;;;;;;3.43;3.23;;;23.40;56.40;;;;;;5009435;28;21037;-75
2023/04/22 00:16:29;;;;;;;3.40;3.20;;;23.40;56.40;;;;;;5009329;28;20564;-75
2023/04/22 00:18:57;;;;;;;3.73;3.43;;;23.40;56.40;;;;;;5029265;28;20467;-75
2023/04/22 00:21:27;;;;;;;3.73;3.43;;;23.40;56.40;;;;;;5026824;28;20476;-75
2023/04/22 00:23:55;;;;;;;3.10;2.90;;;23.40;56.40;;;;;;5028592;28;20471;-75
2023/04/22 00:26:23;;;;;;;3.30;3.10;;;23.40;56.40;;;;;;5026007;28;20957;-75
2023/04/22 00:28:51;;;;;;;3.17;2.97;;;23.40;56.40;;;;;;5001899;28;20491;-74
2023/04/22 00:31:19;;;;;;;3.70;3.40;;;23.40;56.40;;;;;;5023507;28;20492;-75
2023/04/22 00:33:48;;;;;;;2.80;2.60;;;23.40;56.40;;;;;;5021157;28;20471;-75
2023/04/22 00:36:16;;;;;;;3.30;3.10;;;23.40;56.40;;;;;;5019450;28;20459;-75
2023/04/22 00:38:50;;;;;;;4.23;3.93;;;23.30;56.40;;;;;;5028641;28;20899;-74
2023/04/22 00:41:18;;;;;;;3.93;3.53;;;23.30;56.40;;;;;;5026317;28;20496;-74
2023/04/22 00:43:46;;;;;;;3.87;3.57;;;23.30;56.40;;;;;;5021035;28;20495;-74
2023/04/22 00:46:16;;;;;;;3.40;3.10;;;23.30;56.40;;;;;;5030173;28;20496;-74
2023/04/22 00:48:46;;;;;;;4.03;3.73;;;23.30;56.40;;;;;;5015048;28;20981;-74
2023/04/22 00:51:14;;;;;;;3.67;3.37;;;23.30;56.40;;;;;;5021822;28;20530;-74
2023/04/22 00:53:42;;;;;;;3.50;3.20;;;23.30;56.40;;;;;;5020632;28;20497;-74
2023/04/22 00:56:12;;;;;;;3.33;3.13;;;23.30;56.40;;;;;;5018399;28;20457;-74
2023/04/22 00:58:41;;;;;;;3.53;3.23;;;23.30;56.40;;;;;;5028841;28;21102;-73
2023/04/22 01:01:09;;;;;;;4.10;3.80;;;23.30;56.50;;;;;;5028666;28;20467;-75
2023/04/22 01:03:40;;;;;;;3.40;3.20;;;23.30;56.50;;;;;;5025196;28;20459;-74
2023/04/22 01:06:08;;;;;;;3.47;3.17;;;23.30;56.50;;;;;;5019098;28;20928;-74
2023/04/22 01:08:37;;;;;;;3.70;3.40;;;23.30;56.50;;;;;;5016465;28;20493;-74
2023/04/22 01:11:05;;;;;;;3.67;3.47;;;23.30;56.50;;;;;;5017488;28;20471;-75
2023/04/22 01:13:37;;;;;;;3.60;3.30;;;23.30;56.50;;;;;;5009763;28;20483;-75
2023/04/22 01:16:07;;;;;;;3.20;3.00;;;23.30;56.50;;;;;;5020830;28;20461;-75
2023/04/22 01:18:36;;;;;;;3.83;3.53;;;23.20;56.50;;;;;;5026341;28;20522;-75
2023/04/22 01:21:05;;;;;;;3.37;3.17;;;23.20;56.50;;;;;;5027490;28;20838;-75
2023/04/22 01:23:35;;;;;;;3.70;3.40;;;23.20;56.50;;;;;;5025340;28;20468;-75
2023/04/22 01:26:03;;;;;;;4.20;3.90;;;23.20;56.50;;;;;;5020032;28;20864;-75
2023/04/22 01:28:32;;;;;;;4.17;3.87;;;23.20;56.50;;;;;;5023258;28;20948;-75
2023/04/22 01:31:00;;;;;;;3.97;3.70;;;23.20;56.50;;;;;;5003988;28;20503;-74
2023/04/22 01:33:30;;;;;;;4.63;4.33;;;23.20;56.40;;;;;;5026951;28;20843;-74
2023/04/22 01:36:00;;;;;;;3.47;3.20;;;23.20;56.50;;;;;;5008914;28;20547;-74
2023/04/22 01:38:32;;;;;;;3.30;3.10;;;23.20;56.50;;;;;;5000610;28;20484;-74
2023/04/22 01:41:02;;;;;;;3.60;3.37;;;23.20;56.40;;;;;;5027545;28;20565;-75
2023/04/22 01:43:31;;;;;;;3.50;3.20;;;23.20;56.50;;;;;;5004977;28;20501;-76
2023/04/22 01:46:00;;;;;;;3.57;3.27;;;23.20;56.50;;;;;;5035297;28;20469;-75
2023/04/22 01:48:29;;;;;;;3.67;3.37;;;23.20;56.50;;;;;;5032797;28;20451;-76
2023/04/22 01:50:57;;;;;;;3.40;3.20;;;23.10;56.50;;;;;;5032292;28;20444;-76
2023/04/22 01:53:25;;;;;;;5.13;4.10;;;23.10;56.50;;;;;;5018008;28;20459;-76
2023/04/22 01:55:53;;;;;;;3.07;2.90;;;23.10;56.50;;;;;;5023700;28;20467;-76
2023/04/22 01:58:23;;;;;;;3.47;3.23;;;23.10;56.50;;;;;;5006841;28;20527;-75
2023/04/22 02:00:51;;;;;;;3.47;3.27;;;23.10;56.50;;;;;;5023684;28;20518;-75
2023/04/22 02:03:19;;;;;;;3.43;3.23;;;23.10;56.50;;;;;;5020770;28;20460;-75
2023/04/22 02:05:48;;;;;;;3.43;3.20;;;23.10;56.50;;;;;;5032079;28;20467;-75
2023/04/22 02:08:16;;;;;;;3.70;3.50;;;23.10;56.50;;;;;;5007138;28;20503;-75
2023/04/22 02:10:45;;;;;;;3.77;3.57;;;23.10;56.50;;;;;;5012571;28;20451;-75
2023/04/22 02:13:13;;;;;;;3.70;3.50;;;23.10;56.50;;;;;;5025288;28;20550;-75
2023/04/22 02:15:42;;;;;;;3.33;3.13;;;23.10;56.50;;;;;;5009283;28;20517;-75
2023/04/22 02:18:11;;;;;;;3.83;3.53;;;23.10;56.50;;;;;;5031631;28;20962;-75
2023/04/22 02:20:42;;;;;;;3.60;3.40;;;23.10;56.50;;;;;;5027130;28;20974;-75
2023/04/22 02:23:10;;;;;;;3.47;3.23;;;23.10;56.50;;;;;;5009208;28;20859;-75
2023/04/22 02:25:39;;;;;;;3.90;3.60;;;23.10;56.50;;;;;;5031325;28;20485;-75
2023/04/22 02:28:07;;;;;;;3.20;3.00;;;23.10;56.40;;;;;;5030754;28;20467;-75
2023/04/22 02:30:36;;;;;;;3.60;3.30;;;23.10;56.50;;;;;;5013255;28;20468;-75
2023/04/22 02:33:06;;;;;;;3.50;3.30;;;23.10;56.50;;;;;;5014670;28;20546;-75
2023/04/22 02:35:34;;;;;;;3.60;3.40;;;23.10;56.40;;;;;;5022957;28;20460;-75
2023/04/22 02:38:02;;;;;;;4.00;3.70;;;23.10;56.50;;;;;;5004202;28;20850;-75
2023/04/22 02:40:30;;;;;;;3.60;3.40;;;23.00;56.50;;;;;;5013353;28;20811;-75
2023/04/22 02:42:59;;;;;;;3.30;3.10;;;23.00;56.50;;;;;;5022456;28;20977;-75
2023/04/22 02:45:28;;;;;;;3.97;3.67;;;23.00;56.50;;;;;;5009790;28;20468;-74
2023/04/22 02:47:56;;;;;;;3.70;3.50;;;23.00;56.40;;;;;;5006675;28;20840;-74
2023/04/22 02:50:26;;;;;;;3.40;3.20;;;23.00;56.40;;;;;;5030380;28;20460;-74
2023/04/22 02:52:54;;;;;;;3.17;2.97;;;23.00;56.50;;;;;;5009882;28;20899;-74
2023/04/22 02:55:24;;;;;;;3.53;3.23;;;23.00;56.40;;;;;;5001450;28;20515;-74
2023/04/22 02:57:52;;;;;;;3.40;3.20;;;23.00;56.40;;;;;;5014283;28;20531;-74
2023/04/22 03:00:21;;;;;;;3.10;2.90;;;23.00;56.40;;;;;;5018855;28;20992;-74
2023/04/22 03:02:49;;;;;;;3.57;3.27;;;23.00;56.50;;;;;;5027922;28;20840;-74
2023/04/22 03:05:20;;;;;;;3.40;3.20;;;23.00;56.40;;;;;;5029540;28;20483;-74
2023/04/22 03:07:49;;;;;;;3.03;2.83;;;23.00;56.40;;;;;;5009889;28;20492;-75
2023/04/22 03:10:18;;;;;;;3.60;3.30;;;23.00;56.50;;;;;;5028644;28;20455;-75
2023/04/22 03:12:47;;;;;;;3.07;2.87;;;23.00;56.50;;;;;;5009810;28;20536;-75
2023/04/22 03:15:15;;;;;;;3.43;3.23;;;22.90;56.40;;;;;;5006352;28;20475;-75
2023/04/22 03:17:48;;;;;;;3.47;3.17;;;22.90;56.50;;;;;;5009999;28;20955;-75
2023/04/22 03:20:16;;;;;;;3.80;3.50;;;22.90;56.40;;;;;;4998206;28;20484;-74
2023/04/22 03:22:44;;;;;;;2.93;2.73;;;22.90;56.50;;;;;;5023250;28;20562;-74
2023/04/22 03:25:15;;;;;;;2.73;2.60;;;22.90;56.40;;;;;;5002061;28;20556;-75
2023/04/22 03:27:50;;;;;;;3.07;2.87;;;22.90;56.50;;;;;;5026211;28;20460;-74
2023/04/22 03:30:18;;;;;;;2.90;2.70;;;22.90;56.50;;;;;;5024904;28;20459;-75
2023/04/22 03:32:47;;;;;;;3.60;3.30;;;22.90;56.50;;;;;;5024869;28;20469;-75
2023/04/22 03:35:38;;;;;;;3.57;3.37;;;22.90;56.50;;;;;;5015849;28;20487;-74
2023/04/22 03:38:07;;;;;;;2.80;2.70;;;22.90;56.40;;;;;;4995082;28;20496;-74
2023/04/22 03:40:39;;;;;;;3.33;3.13;;;22.90;56.50;;;;;;5011889;28;20514;-74
2023/04/22 03:43:18;;;;;;;3.00;2.80;;;22.90;56.50;;;;;;5011391;28;20550;-75
2023/04/22 03:45:56;;;;;;;3.13;2.93;;;22.90;56.50;;;;;;5009433;28;20472;-74
2023/04/22 03:48:28;;;;;;;3.50;3.30;;;22.90;56.50;;;;;;5008197;28;20474;-74
2023/04/22 03:50:57;;;;;;;3.27;3.07;;;22.90;56.60;;;;;;4998641;28;20511;-74
2023/04/22 03:53:27;;;;;;;3.53;3.30;;;22.90;56.60;;;;;;5025195;28;20467;-74
2023/04/22 03:55:57;;;;;;;3.13;2.87;;;22.90;56.60;;;;;;5012011;28;20475;-74
2023/04/22 03:58:25;;;;;;;3.67;3.37;;;22.90;56.60;;;;;;5012551;28;20482;-74
2023/04/22 04:00:55;;;;;;;3.00;2.80;;;22.90;56.60;;;;;;5007992;28;20553;-74
2023/04/22 04:03:24;;;;;;;2.93;2.73;;;22.90;56.60;;;;;;5016364;28;20526;-74
2023/04/22 04:05:55;;;;;;;2.87;2.67;;;23.00;56.60;;;;;;5002362;28;20531;-73
2023/04/22 04:08:24;;;;;;;3.27;3.07;;;23.00;56.60;;;;;;5000932;28;20483;-73
2023/04/22 04:10:52;;;;;;;3.20;3.00;;;23.00;56.60;;;;;;5010719;28;20492;-73
2023/04/22 04:13:22;;;;;;;3.17;2.97;;;23.00;56.60;;;;;;5009624;28;20868;-74
2023/04/22 04:16:09;;;;;;;3.10;2.90;;;23.10;56.50;;;;;;5016516;28;20674;-73
2023/04/22 04:18:39;;;;;;;2.70;2.50;;;23.10;56.50;;;;;;5011361;28;20511;-73
2023/04/22 04:21:08;;;;;;;2.70;2.50;;;23.10;56.50;;;;;;5012196;28;20551;-74
2023/04/22 04:23:41;;;;;;;3.10;2.90;;;23.20;56.40;;;;;;5008163;28;20567;-74
2023/04/22 04:26:09;;;;;;;2.90;2.70;;;23.20;56.30;;;;;;5019314;28;20464;-74
2023/04/22 04:28:43;;;;;;;2.73;2.53;;;23.20;56.20;;;;;;5010528;28;20565;-74
2023/04/22 04:31:12;;;;;;;2.97;2.77;;;23.20;56.20;;;;;;5017080;28;20470;-75
2023/04/22 04:33:40;;;;;;;2.77;2.57;;;23.30;56.10;;;;;;5009609;28;20461;-74
2023/04/22 04:36:09;;;;;;;3.40;2.90;;;23.30;56.10;;;;;;5008123;28;20479;-75
2023/04/22 04:38:38;;;;;;;3.33;3.13;;;23.30;56.00;;;;;;4998819;28;20483;-74
2023/04/22 04:41:07;;;;;;;3.43;3.20;;;23.30;56.00;;;;;;5006441;28;20509;-75
2023/04/22 04:43:36;;;;;;;2.97;2.77;;;23.30;56.00;;;;;;4997548;28;20543;-75
2023/04/22 04:46:36;;;;;;;2.93;2.73;;;23.30;56.00;;;;;;5011722;28;20862;-75
2023/04/22 04:49:11;;;;;;;2.80;2.60;;;23.30;56.00;;;;;;5007271;28;20463;-75
2023/04/22 04:51:49;;;;;;;2.90;2.70;;;23.20;56.00;;;;;;5002556;28;20464;-75
2023/04/22 04:54:17;;;;;;;2.83;2.63;;;23.20;56.00;;;;;;5009046;28;20469;-74
2023/04/22 04:56:46;;;;;;;2.83;2.63;;;23.20;56.00;;;;;;5003719;28;20487;-75
2023/04/22 04:59:14;;;;;;;2.40;2.20;;;23.20;56.00;;;;;;5001051;28;20462;-75
2023/04/22 05:01:45;;;;;;;3.20;3.00;;;23.20;56.00;;;;;;5000026;28;20568;-74
2023/04/22 05:04:13;;;;;;;3.17;2.87;;;23.20;56.00;;;;;;5008800;28;21286;-74
2023/04/22 05:06:44;;;;;;;3.13;2.93;;;23.20;56.00;;;;;;5005735;28;20556;-74
2023/04/22 05:09:14;;;;;;;2.43;2.33;;;23.10;56.00;;;;;;5002782;28;21193;-75
2023/04/22 05:11:43;;;;;;;3.13;2.93;;;23.10;56.00;;;;;;4996638;28;20490;-75
2023/04/22 05:14:17;;;;;;;3.00;2.80;;;23.10;56.00;;;;;;5007086;28;20459;-75
2023/04/22 05:16:48;;;;;;;2.83;2.63;;;23.10;56.10;;;;;;5003722;28;20473;-75
2023/04/22 05:19:16;;;;;;;2.67;2.50;;;23.10;56.10;;;;;;5011713;28;20479;-75
2023/04/22 05:21:46;;;;;;;2.67;2.47;;;23.10;56.10;;;;;;5008848;28;20461;-75
2023/04/22 05:24:15;;;;;;;2.87;2.67;;;23.10;56.10;;;;;;5006260;28;20475;-75
2023/04/22 05:26:43;;;;;;;3.00;2.80;;;23.10;56.10;;;;;;5022211;28;20449;-75
2023/04/22 05:29:18;;;;;;;2.70;2.50;;;23.10;56.10;;;;;;5007730;28;20557;-75
2023/04/22 05:31:48;;;;;;;2.80;2.60;;;23.10;56.10;;;;;;5008833;28;20470;-75
2023/04/22 05:34:16;;;;;;;3.60;3.40;;;23.10;56.10;;;;;;5009549;28;20472;-75
2023/04/22 05:36:44;;;;;;;2.97;2.67;;;23.10;56.10;;;;;;4998484;28;20473;-75
2023/04/22 05:39:14;;;;;;;2.60;2.30;;;23.10;56.20;;;;;;5013974;28;20468;-75
2023/04/22 05:41:42;;;;;;;2.80;2.60;;;23.10;56.20;;;;;;5028412;28;20464;-75
2023/04/22 05:44:14;;;;;;;2.87;2.67;;;23.10;56.20;;;;;;5031530;28;20468;-75
2023/04/22 05:46:42;;;;;;;3.00;2.80;;;23.10;56.20;;;;;;5019660;28;20495;-75
2023/04/22 05:49:12;;;;;;;2.97;2.77;;;23.10;56.10;;;;;;5015252;28;20888;-75
2023/04/22 05:51:58;;;;;;;2.30;2.20;;;23.10;56.10;;;;;;5027999;28;20452;-74
2023/04/22 05:54:34;;;;;;;3.53;3.33;;;23.10;56.10;;;;;;5015252;28;20479;-73
2023/04/22 05:57:03;;;;;;;2.80;2.60;;;23.20;56.10;;;;;;5007042;28;20461;-74
2023/04/22 05:59:32;;;;;;;2.80;2.60;;;23.20;56.10;;;;;;4999185;28;20481;-73
2023/04/22 06:02:00;;;;;;;2.33;2.17;;;23.20;56.00;;;;;;5018626;28;20488;-73
2023/04/22 06:04:29;;;;;;;2.30;2.10;;;23.20;56.00;;;;;;5015182;28;20487;-75
2023/04/22 06:07:01;;;;;;;3.13;2.93;;;23.20;55.90;;;;;;5022900;28;20545;-76
2023/04/22 06:09:29;;;;;;;3.00;2.80;;;23.20;56.10;;;;;;5011581;28;20988;-76
2023/04/22 06:11:58;;;;;;;3.43;3.13;;;23.20;56.00;;;;;;5026722;28;20561;-77
2023/04/22 06:14:26;;;;;;;2.97;2.77;;;23.30;56.00;;;;;;5007576;28;20463;-79
2023/04/22 06:16:54;;;;;;;2.67;2.47;;;23.30;55.90;;;;;;5008327;28;20530;-77
2023/04/22 06:19:23;;;;;;;2.77;2.67;;;23.30;55.90;;;;;;5008454;28;20487;-77
2023/04/22 06:21:52;;;;;;;2.97;2.83;;;23.30;55.90;;;;;;5013904;28;20460;-77
2023/04/22 06:24:22;;;;;;;3.00;2.80;;;23.30;55.90;;;;;;5026756;28;20484;-77
2023/04/22 06:26:50;;;;;;;2.97;2.77;;;23.30;55.90;;;;;;5003897;28;21039;-78
2023/04/22 06:29:18;;;;;;;2.83;2.63;;;23.30;55.90;;;;;;5009046;28;20464;-77
2023/04/22 06:31:46;;;;;;;3.17;2.90;;;23.30;55.80;;;;;;5010195;28;20473;-77
2023/04/22 06:34:15;;;;;;;3.03;2.83;;;23.30;55.90;;;;;;5028823;28;20862;-77
2023/04/22 06:36:44;;;;;;;3.00;2.80;;;23.30;55.80;;;;;;5011274;28;20460;-76
2023/04/22 06:39:14;;;;;;;3.00;2.80;;;23.30;55.90;;;;;;5018293;28;20499;-76
2023/04/22 06:41:51;;;;;;;2.53;2.33;;;23.30;55.80;;;;;;5007571;28;20557;-77
2023/04/22 06:44:39;;;;;;;2.90;2.70;;;23.30;55.80;;;;;;5010939;28;20471;-77
2023/04/22 06:47:30;;;;;;;3.20;3.00;;;23.30;55.80;;;;;;5021805;28;20563;-78
2023/04/22 06:50:03;;;;;;;2.87;2.67;;;23.30;55.80;;;;;;5013158;28;20510;-78
2023/04/22 06:52:36;;;;;;;2.67;2.47;;;23.30;55.90;;;;;;5028061;28;20460;-78
2023/04/22 06:55:07;;;;;;;3.23;3.00;;;23.30;55.80;;;;;;5008622;28;20811;-78
2023/04/22 06:57:35;;;;;;;3.00;2.80;;;23.30;55.80;;;;;;5021191;28;20844;-77
2023/04/22 07:00:04;;;;;;;2.70;2.60;;;23.30;55.80;;;;;;5006760;28;20512;-79
2023/04/22 07:02:34;;;;;;;2.97;2.77;;;23.30;55.80;;;;;;5006644;28;20478;-76
2023/04/22 07:05:03;;;;;;;3.40;2.90;;;23.30;55.80;;;;;;5021266;28;20506;-78
2023/04/22 07:07:31;;;;;;;3.23;3.03;;;23.30;55.80;;;;;;5000788;28;20472;-79
2023/04/22 07:10:00;;;;;;;3.00;2.80;;;23.30;55.80;;;;;;5012383;28;20821;-79
2023/04/22 07:12:36;;;;;;;4.53;2.40;;;23.30;55.80;;;;;;5009421;28;20468;-77
2023/04/22 07:15:05;;;;;;;2.93;2.73;;;23.30;55.80;;;;;;5025679;28;20464;-77
2023/04/22 07:17:33;;;;;;;2.73;2.60;;;23.30;55.80;;;;;;5016204;28;20460;-79
2023/04/22 07:20:01;;;;;;;2.60;2.40;;;23.30;55.80;;;;;;5026717;28;20457;-78
2023/04/22 07:22:30;;;;;;;3.00;2.70;;;23.30;55.80;;;;;;5025648;28;20530;-78
2023/04/22 07:24:58;;;;;;;2.43;2.23;;;23.30;55.80;;;;;;5023668;28;20878;-79
2023/04/22 07:27:26;;;;;;;2.80;2.63;;;23.30;55.80;;;;;;5023159;28;20453;-79
2023/04/22 07:29:55;;;;;;;2.90;2.70;;;23.30;55.80;;;;;;5027787;28;20971;-80
2023/04/22 07:32:24;;;;;;;2.67;2.47;;;23.30;55.80;;;;;;5008237;28;21137;-78
2023/04/22 07:34:52;;;;;;;3.27;2.97;;;23.30;55.80;;;;;;5018923;28;21147;-78
2023/04/22 07:37:22;;;;;;;2.73;2.53;;;23.30;55.80;;;;;;5022159;28;21012;-77
2023/04/22 07:39:50;;;;;;;3.57;2.47;;;23.40;55.80;;;;;;5026488;28;20550;-75
2023/04/22 07:42:19;;;;;;;3.43;3.13;;;23.40;55.80;;;;;;5026714;28;20458;-75
2023/04/22 07:44:47;;;;;;;3.43;2.67;;;23.40;55.80;;;;;;5028610;28;20480;-78
2023/04/22 07:47:17;;;;;;;2.83;2.63;;;23.40;55.80;;;;;;5025810;28;20467;-78
2023/04/22 07:49:45;;;;;;;2.60;2.40;;;23.40;55.80;;;;;;5029617;28;20886;-78
2023/04/22 07:52:14;;;;;;;2.37;2.27;;;23.40;55.90;;;;;;5025746;28;20457;-78
2023/04/22 07:54:42;;;;;;;2.73;2.53;;;23.50;55.90;;;;;;5026528;28;20452;-78
2023/04/22 07:57:12;;;;;;;2.87;2.57;;;23.50;56.00;;;;;;5025654;28;20464;-78
2023/04/22 07:59:40;;;;;;;2.50;2.30;;;23.50;56.00;;;;;;5027465;28;20555;-78
2023/04/22 08:02:08;;;;;;;5.00;2.63;;;23.50;56.00;;;;;;5028410;28;20456;-78
2023/04/22 08:04:38;;;;;;;2.77;2.57;;;23.50;56.00;;;;;;5028997;28;20797;-79
2023/04/22 08:07:06;;;;;;;5.03;2.50;;;23.50;56.00;;;;;;5023266;28;20499;-82
2023/04/22 08:09:55;;;;;;;3.00;2.80;;;23.60;56.00;;;;;;5019998;28;20468;-81
2023/04/22 08:12:24;;;;;;;2.87;2.67;;;23.60;56.00;;;;;;5027362;28;20458;-78
2023/04/22 08:14:52;;;;;;;3.30;3.00;;;23.60;56.10;;;;;;5024963;28;20471;-78
2023/04/22 08:17:21;;;;;;;4.70;2.57;;;23.60;56.10;;;;;;5026218;28;20883;-78
2023/04/22 08:19:52;;;;;;;2.70;2.60;;;23.60;56.10;;;;;;5021901;28;20467;-78
2023/04/22 08:22:20;;;;;;;4.47;2.83;;;23.60;56.10;;;;;;5022861;28;20539;-81
2023/04/22 08:24:48;;;;;;;2.87;2.67;;;23.60;56.10;;;;;;5028684;28;20479;-83
2023/04/22 08:27:18;;;;;;;3.00;2.80;;;23.70;56.10;;;;;;5022750;28;20493;-79
2023/04/22 08:29:46;;;;;;;3.53;3.20;;;23.70;56.10;;;;;;5022192;28;20506;-81
2023/04/22 08:32:14;;;;;;;3.33;2.60;;;23.70;56.10;;;;;;5034715;28;20453;-80
2023/04/22 08:34:42;;;;;;;3.00;2.50;;;23.70;56.10;;;;;;5028852;28;20487;-80
2023/04/22 08:37:12;;;;;;;2.90;2.70;;;23.70;56.20;;;;;;5020376;28;20496;-81
2023/04/22 08:39:40;;;;;;;2.67;2.47;;;23.70;56.20;;;;;;5018650;28;20467;-81
2023/04/22 08:42:10;;;;;;;5.00;2.80;;;23.70;56.10;;;;;;5029304;28;20472;-82
2023/04/22 08:44:39;;;;;;;2.60;2.30;;;23.70;56.20;;;;;;5026316;28;20503;-82
2023/04/22 08:47:09;;;;;;;4.80;3.30;;;23.70;56.20;;;;;;5027269;28;20470;-82
2023/04/22 08:49:38;;;;;;;6.73;2.40;;;23.70;56.20;;;;;;5026370;28;20860;-82
2023/04/22 08:52:08;;;;;;;2.93;2.70;;;23.70;56.20;;;;;;5024252;28;20518;-81
2023/04/22 08:54:37;;;;;;;2.93;2.50;;;23.70;56.20;;;;;;5026067;28;20464;-82
2023/04/22 08:57:08;;;;;;;4.37;2.67;;;23.70;56.20;;;;;;5021295;28;21042;-82
2023/04/22 08:59:37;;;;;;;2.57;2.37;;;23.70;56.30;;;;;;5028406;28;20810;-77
2023/04/22 09:02:13;;;;;;;2.60;2.40;;;23.70;56.30;;;;;;5026502;28;20459;-82
2023/04/22 09:04:43;;;;;;;2.40;2.20;;;23.70;56.30;;;;;;5023453;28;20492;-81
2023/04/22 09:07:14;;;;;;;3.00;2.70;;;23.70;56.30;;;;;;5024268;28;20504;-82
2023/04/22 09:09:44;;;;;;;3.87;2.67;;;23.70;56.30;;;;;;5016859;28;20478;-81
2023/04/22 09:12:13;;;;;;;2.80;2.60;;;23.70;56.30;;;;;;5006877;28;20887;-82
2023/04/22 09:14:43;;;;;;;3.10;2.13;;;23.70;56.30;;;;;;5027222;28;20480;-81
2023/04/22 09:17:11;;;;;;;3.73;2.80;;;23.70;56.30;;;;;;5024953;28;20556;-82
2023/04/22 09:19:39;;;;;;;3.10;2.47;;;23.70;56.30;;;;;;5024635;28;20971;-81
2023/04/22 09:22:12;;;;;;;2.87;2.57;;;23.70;56.30;;;;;;5006923;28;20620;-80
2023/04/22 09:24:44;;;;;;;4.23;2.57;;;23.70;56.30;;;;;;5022794;28;21016;-80
2023/04/22 09:27:13;;;;;;;4.90;2.50;;;23.80;56.20;;;;;;5017212;28;20452;-81
2023/04/22 09:29:50;;;;;;;2.63;2.43;;;23.80;56.20;;;;;;5025990;28;20494;-81
2023/04/22 09:32:19;;;;;;;3.67;2.50;;;23.80;56.20;;;;;;5008466;28;20777;-82
2023/04/22 09:34:50;;;;;;;3.80;2.67;;;23.80;56.20;;;;;;5002522;28;20461;-83
2023/04/22 09:37:22;;;;;;;2.70;2.50;;;23.80;56.20;;;;;;5021806;28;20496;-83
2023/04/22 09:39:55;;;;;;;3.63;2.57;;;23.80;56.10;;;;;;5021706;28;20823;-80
2023/04/22 09:42:23;;;;;;;9.77;2.80;;;23.80;56.10;;;;;;5022579;28;20460;-80
2023/04/22 09:44:52;;;;;;;4.93;2.80;;;23.90;56.10;;;;;;5023820;28;20472;-81
2023/04/22 09:47:22;;;;;;;3.80;3.03;;;23.90;56.10;;;;;;5023832;28;20487;-85
2023/04/22 09:49:50;;;;;;;5.30;2.40;;;23.90;56.10;;;;;;5021810;28;20457;-83
2023/04/22 09:52:25;;;;;;;2.30;2.10;;;23.90;56.10;;;;;;5026147;28;21062;-81
2023/04/22 09:54:55;;;;;;;4.70;2.30;;;23.90;56.20;;;;;;5025905;28;20471;-78
2023/04/22 09:57:23;;;;;;;4.00;3.20;;;23.90;56.20;;;;;;5026499;28;20459;-81
2023/04/22 09:59:52;;;;;;;4.77;2.40;;;23.90;56.20;;;;;;5024241;28;20464;-81
2023/04/22 10:02:29;;;;;;;5.67;3.40;;;23.90;56.20;;;;;;5027619;28;20510;-81
2023/04/22 10:04:59;;;;;;;2.70;2.50;;;23.90;56.20;;;;;;5031358;28;21625;-81
2023/04/22 10:07:30;;;;;;;3.23;2.77;;;23.90;56.20;;;;;;5030081;28;20472;-83
2023/04/22 10:10:00;;;;;;;4.33;2.63;;;23.90;56.30;;;;;;5028671;28;20950;-80
2023/04/22 10:12:29;;;;;;;2.67;2.47;;;23.90;56.30;;;;;;5019494;28;21027;-79
2023/04/22 10:15:03;;;;;;;6.93;2.40;;;23.90;56.30;;;;;;5028557;28;20461;-81
2023/04/22 10:17:36;;;;;;;4.07;2.20;;;23.90;56.30;;;;;;5029965;28;20461;-79
2023/04/22 10:20:09;;;;;;;2.53;2.10;;;23.90;56.30;;;;;;5017722;28;20565;-79
2023/04/22 10:22:39;;;;;;;2.40;2.20;;;23.80;56.40;;;;;;5012193;28;20485;-79
2023/04/22 10:25:13;;;;;;;2.53;2.27;;;23.80;56.50;;;;;;5030751;28;20595;-81
2023/04/22 10:27:41;;;;;;;4.30;2.77;;;23.80;56.50;;;;;;5025471;28;20456;-81
2023/04/22 10:30:11;;;;;;;2.97;2.40;;;23.90;56.40;;;;;;5024459;28;20467;-80
2023/04/22 10:32:40;;;;;;;2.97;2.40;;;23.90;56.40;;;;;;5029624;28;20470;-80
2023/04/22 10:35:11;;;;;;;3.30;2.40;;;23.90;56.30;;;;;;5021015;28;20463;-83
2023/04/22 10:37:44;;;;;;;4.13;2.87;;;24.00;56.30;;;;;;5028785;28;20530;-78
2023/04/22 10:40:18;;;;;;;3.03;2.70;;;24.00;56.30;;;;;;5024918;28;20468;-81
2023/04/22 10:42:49;;;;;;;4.13;2.33;;;24.00;56.30;;;;;;5026127;28;20538;-81
2023/04/22 10:45:18;;;;;;;2.30;2.10;;;24.00;56.60;;;;;;5020687;28;20517;-83
2023/04/22 10:47:47;;;;;;;3.00;2.33;;;24.00;56.80;;;;;;5023594;28;20477;-87
2023/04/22 10:50:20;;;;;;;3.80;2.40;;;24.00;56.60;;;;;;5027118;28;20520;-91
2023/04/22 10:52:50;;;;;;;3.07;2.07;;;24.10;56.90;;;;;;5023771;28;20466;-81
2023/04/22 10:55:21;;;;;;;3.10;2.13;;;24.10;57.00;;;;;;5026571;28;20464;-86
2023/04/22 10:57:50;;;;;;;2.90;2.40;;;24.10;57.10;;;;;;5025930;28;20460;-84
2023/04/22 11:00:41;;;;;;;4.83;2.57;;;24.10;57.20;;;;;;5024580;28;20456;-80
2023/04/22 11:03:28;;;;;;;2.67;2.43;;;24.10;57.30;;;;;;5021467;28;20453;-84
2023/04/22 11:06:17;;;;;;;3.07;1.80;;;24.10;57.40;;;;;;5022513;28;20499;-86
2023/04/22 11:08:47;;;;;;;2.87;2.00;;;24.10;57.10;;;;;;5026103;28;20456;-87
2023/04/22 11:11:19;;;;;;;4.83;2.30;;;24.10;57.30;;;;;;5025510;28;20460;-84
2023/04/22 11:13:50;;;;;;;7.07;2.00;;;24.10;57.20;;;;;;5023752;28;20497;-88
2023/04/22 11:16:22;;;;;;;4.10;3.13;;;24.10;57.40;;;;;;5025816;28;20476;-85
2023/04/22 11:18:52;;;;;;;3.50;2.50;;;24.20;57.40;;;;;;5026150;28;20465;-87
2023/04/22 11:21:21;;;;;;;6.90;2.37;;;24.20;57.30;;;;;;5015490;28;20465;-80
2023/04/22 11:23:51;;;;;;;5.20;2.30;;;24.20;57.50;;;;;;5023712;28;20458;-83
2023/04/22 11:26:34;;;;;;;9.10;3.23;;;24.20;57.50;;;;;;5025680;28;20703;-78
2023/04/22 11:29:03;;;;;;;4.07;2.67;;;24.30;57.60;;;;;;5021684;28;20488;-82
2023/04/22 11:31:31;;;;;;;11.33;3.40;;;24.40;57.20;;;;;;5022022;28;20554;-77
2023/04/22 11:33:59;;;;;;;2.73;2.17;;;24.40;57.40;;;;;;5020707;28;20489;-83
2023/04/22 11:36:28;;;;;;;5.43;3.10;;;24.50;57.20;;;;;;5020294;28;20951;-82
2023/04/22 11:38:56;;;;;;;4.63;2.50;;;24.60;57.00;;;;;;5025645;28;20536;-84
2023/04/22 11:41:28;;;;;;;4.93;3.13;;;24.70;56.80;;;;;;5027383;28;20521;-83
2023/04/22 11:44:00;;;;;;;4.33;3.00;;;24.80;57.00;;;;;;5025540;28;20950;-81
2023/04/22 11:46:30;;;;;;;4.43;2.67;;;24.90;56.80;;;;;;5022034;28;20511;-86
2023/04/22 11:49:13;;;;;;;2.50;2.30;;;25.00;56.60;;;;;;5024435;28;20466;-82
2023/04/22 11:51:55;;;;;;;4.10;2.20;;;25.10;58.20;;;;;;5021583;28;20535;-82
2023/04/22 11:54:34;;;;;;;4.90;1.90;;;25.10;57.70;;;;;;5026730;28;20577;-84
2023/04/22 11:57:07;;;;;;;5.87;2.40;;;25.00;57.00;;;;;;5021124;28;20466;-84
2023/04/22 11:59:36;;;;;;;3.53;2.23;;;24.90;57.40;;;;;;5020955;28;20820;-84
2023/04/22 12:02:06;;;;;;;2.27;2.07;;;24.80;57.20;;;;;;5026039;28;20483;-81
2023/04/22 12:04:39;;;;;;;2.50;1.90;;;24.80;56.80;;;;;;5021577;28;20475;-83
2023/04/22 12:07:08;;;;;;;3.47;1.80;;;24.80;56.80;;;;;;5026840;28;21047;-83
2023/04/22 12:09:37;;;;;;;2.13;2.00;;;24.90;56.90;;;;;;4999000;28;20469;-77
2023/04/22 12:12:07;;;;;;;1.97;1.77;;;25.00;56.40;;;;;;5006540;28;20484;-86
2023/04/22 12:14:36;;;;;;;2.37;2.10;;;25.00;56.10;;;;;;5005873;28;21183;-85
2023/04/22 12:17:05;;;;;;;2.40;2.10;;;25.10;56.20;;;;;;5023306;28;20469;-79
2023/04/22 12:19:33;;;;;;;2.33;1.97;;;25.10;56.00;;;;;;5023038;28;20463;-83
2023/04/22 12:22:01;;;;;;;3.60;2.10;;;25.20;56.00;;;;;;5023062;28;20451;-81
2023/04/22 12:24:30;;;;;;;2.43;1.70;;;25.30;55.80;;;;;;5023117;28;20459;-87
2023/04/22 12:26:59;;;;;;;2.03;1.90;;;25.30;55.80;;;;;;5023349;28;20988;-86
2023/04/22 12:29:32;;;;;;;3.10;2.00;;;25.30;55.70;;;;;;5025783;28;20551;-79
2023/04/22 12:32:00;;;;;;;3.10;2.60;;;25.30;55.80;;;;;;5021422;28;20546;-85
2023/04/22 12:34:29;;;;;;;1.73;1.63;;;25.30;55.70;;;;;;5015413;28;20506;-86
2023/04/22 12:36:58;;;;;;;3.37;1.93;;;25.40;55.70;;;;;;5023162;28;20464;-85
2023/04/22 12:39:27;;;;;;;2.53;2.07;;;25.40;55.60;;;;;;5027266;28;20477;-85
2023/04/22 12:41:56;;;;;;;2.60;1.80;;;25.40;55.60;;;;;;5026158;28;20486;-85
2023/04/22 12:44:25;;;;;;;2.73;2.30;;;25.40;55.40;;;;;;5024240;28;21008;-85
2023/04/22 12:46:55;;;;;;;1.80;1.43;;;25.40;55.40;;;;;;5002777;28;20473;-86
2023/04/22 12:49:23;;;;;;;1.90;1.70;;;25.40;55.50;;;;;;5025475;28;20477;-85
2023/04/22 12:51:52;;;;;;;1.83;1.70;;;25.40;55.40;;;;;;5025841;28;20490;-85
2023/04/22 12:54:20;;;;;;;2.50;1.93;;;25.40;55.40;;;;;;5010822;28;20475;-81
2023/04/22 12:56:49;;;;;;;1.73;1.60;;;25.30;55.40;;;;;;5029156;28;20971;-85
2023/04/22 12:59:17;;;;;;;2.57;2.00;;;25.30;55.50;;;;;;5020613;28;20966;-85
2023/04/22 13:01:46;;;;;;;2.00;1.90;;;25.20;55.60;;;;;;5020584;28;20518;-84
2023/04/22 13:04:19;;;;;;;1.53;1.43;;;25.20;55.80;;;;;;5022967;28;20497;-83